createdAt,value
2023-02-04T00:02:31.556Z,103272.97
2023-02-04T00:05:18.496Z,103266.94
2023-02-04T00:08:06.796Z,103274.72
2023-02-04T00:10:51.971Z,103269.44
2023-02-04T00:13:36.918Z,103271.13
2023-02-04T00:16:22.169Z,103271.13
2023-02-04T00:19:07.269Z,103262.34
2023-02-04T00:21:52.122Z,103257.16
2023-02-04T00:24:38.073Z,103264.03
2023-02-04T00:27:23.389Z,103271.00
2023-02-04T00:30:09.319Z,103261.41
2023-02-04T00:32:56.497Z,103259.56
2023-02-04T00:35:41.385Z,103255.28
2023-02-04T00:38:26.433Z,103270.00
2023-02-04T00:41:11.813Z,103269.09
2023-02-04T00:43:56.945Z,103269.88
2023-02-04T00:46:42.710Z,103256.94
2023-02-04T00:49:27.671Z,103254.34
2023-02-04T00:52:12.488Z,103256.06
2023-02-04T00:54:57.343Z,103258.53
2023-02-04T00:57:42.932Z,103272.44
2023-02-04T01:00:28.006Z,103268.06
2023-02-04T01:03:13.111Z,103271.47
2023-02-04T01:05:57.981Z,103275.88
2023-02-04T01:08:43.143Z,103280.19
2023-02-04T01:11:29.883Z,103282.78
2023-02-04T01:14:14.882Z,103269.03
2023-02-04T01:17:00.160Z,103284.56
2023-02-04T01:19:45.539Z,103291.50
2023-02-04T01:22:30.554Z,103295.81
2023-02-04T01:25:15.775Z,103292.28
2023-02-04T01:28:01.103Z,103287.13
2023-02-04T01:30:46.399Z,103290.53
2023-02-04T01:33:31.460Z,103286.22
2023-02-04T01:36:21.642Z,103297.50
2023-02-04T01:39:06.446Z,103297.50
2023-02-04T01:41:51.851Z,103306.22
2023-02-04T01:44:37.333Z,103306.19
2023-02-04T01:47:23.663Z,103304.50
2023-02-04T01:50:13.321Z,103297.56
2023-02-04T01:52:58.971Z,103309.69
2023-02-04T01:55:44.057Z,103312.34
2023-02-04T01:58:32.202Z,103301.94
2023-02-04T02:01:33.882Z,103317.56
2023-02-04T02:04:28.865Z,103302.78
2023-02-04T02:07:13.757Z,103310.63
2023-02-04T02:09:58.856Z,103301.94
2023-02-04T02:12:45.735Z,103296.00
2023-02-04T02:15:31.270Z,103303.78
2023-02-04T02:18:16.372Z,103279.69
2023-02-04T02:21:09.326Z,103297.75
2023-02-04T02:24:00.916Z,103282.28
2023-02-04T02:26:46.139Z,103303.84
2023-02-04T02:29:31.699Z,103307.31
2023-02-04T02:32:17.504Z,103308.22
2023-02-04T02:35:03.169Z,103310.78
2023-02-04T02:37:48.166Z,103302.09
2023-02-04T02:40:33.660Z,103306.47
2023-02-04T02:43:24.074Z,103294.44
2023-02-04T02:46:09.225Z,103288.31
2023-02-04T02:48:54.696Z,103299.53
2023-02-04T02:51:39.691Z,103309.06
2023-02-04T02:54:29.766Z,103309.91
2023-02-04T02:57:21.758Z,103302.13
2023-02-04T03:00:18.636Z,103302.06
2023-02-04T03:03:18.190Z,103283.09
2023-02-04T03:06:14.217Z,103294.25
2023-02-04T03:08:59.143Z,103295.94
2023-02-04T03:11:44.641Z,103301.19
2023-02-04T03:14:29.978Z,103309.84
2023-02-04T03:17:15.532Z,103305.53
2023-02-04T03:20:00.686Z,103310.75
2023-02-04T03:22:45.926Z,103309.91
2023-02-04T03:25:31.415Z,103296.06
2023-02-04T03:28:16.774Z,103297.69
2023-02-04T03:31:02.369Z,103286.53
2023-02-04T03:33:47.693Z,103303.78
2023-02-04T03:36:33.170Z,103284.63
2023-02-04T03:39:18.257Z,103295.09
2023-02-04T03:42:03.149Z,103296.84
2023-02-04T03:44:48.120Z,103296.00
2023-02-04T03:47:33.236Z,103291.66
2023-02-04T03:50:18.549Z,103275.19
2023-02-04T03:53:03.678Z,103284.72
2023-02-04T03:55:48.611Z,103289.03
2023-02-04T03:58:33.952Z,103292.56
2023-02-04T04:01:19.171Z,103280.41
2023-02-04T04:04:04.467Z,103283.91
2023-02-04T04:06:49.881Z,103283.13
2023-02-04T04:09:34.942Z,103297.84
2023-02-04T04:12:20.215Z,103302.09
2023-02-04T04:15:05.807Z,103300.44
2023-02-04T04:17:51.166Z,103301.31
2023-02-04T04:20:36.028Z,103309.06
2023-02-04T04:23:21.269Z,103322.13
2023-02-04T04:26:06.516Z,103313.38
2023-02-04T04:28:51.457Z,103324.75
2023-02-04T04:31:36.459Z,103313.44
2023-02-04T04:34:21.965Z,103324.75
2023-02-04T04:37:06.952Z,103329.97
2023-02-04T04:39:51.949Z,103307.56
2023-02-04T04:42:36.866Z,103329.13
2023-02-04T04:45:22.004Z,103331.78
2023-02-04T04:48:07.195Z,103329.25
2023-02-04T04:50:52.530Z,103336.09
2023-02-04T04:53:37.684Z,103323.03
2023-02-04T04:56:22.978Z,103317.09
2023-02-04T04:59:08.287Z,103329.97
2023-02-04T05:01:53.381Z,103315.34
2023-02-04T05:04:38.578Z,103331.75
2023-02-04T05:07:23.409Z,103319.72
2023-02-04T05:10:09.206Z,103325.78
2023-02-04T05:12:54.084Z,103317.16
2023-02-04T05:15:39.250Z,103340.50
2023-02-04T05:18:24.696Z,103340.53
2023-02-04T05:21:09.873Z,103344.81
2023-02-04T05:23:55.372Z,103345.72
2023-02-04T05:26:40.568Z,103345.75
2023-02-04T05:29:25.748Z,103325.06
2023-02-04T05:32:10.711Z,103338.84
2023-02-04T05:34:55.735Z,103346.69
2023-02-04T05:37:41.309Z,103359.69
2023-02-04T05:40:26.718Z,103343.16
2023-02-04T05:43:12.203Z,103345.75
2023-02-04T05:45:57.963Z,103353.59
2023-02-04T05:48:43.324Z,103314.72
2023-02-04T05:51:28.660Z,103346.66
2023-02-04T05:54:19.300Z,103350.09
2023-02-04T05:57:04.401Z,103349.22
2023-02-04T05:59:49.633Z,103355.31
2023-02-04T06:02:34.846Z,103358.00
2023-02-04T06:05:19.835Z,103361.38
2023-02-04T06:08:05.046Z,103353.56
2023-02-04T06:10:50.291Z,103365.78
2023-02-04T06:13:35.288Z,103362.28
2023-02-04T06:16:20.203Z,103349.34
2023-02-04T06:19:05.199Z,103365.78
2023-02-04T06:21:50.066Z,103372.75
2023-02-04T06:24:35.129Z,103355.50
2023-02-04T06:27:23.301Z,103352.03
2023-02-04T06:30:10.565Z,103369.28
2023-02-04T06:32:55.778Z,103367.56
2023-02-04T06:35:40.889Z,103370.13
2023-02-04T06:38:25.857Z,103377.97
2023-02-04T06:41:11.057Z,103371.88
2023-02-04T06:43:56.249Z,103377.09
2023-02-04T06:46:41.391Z,103370.13
2023-02-04T06:49:26.599Z,103370.25
2023-02-04T06:52:20.536Z,103385.75
2023-02-04T06:55:05.807Z,103384.00
2023-02-04T06:57:50.763Z,103386.63
2023-02-04T07:00:35.758Z,103393.59
2023-02-04T07:03:20.820Z,103386.63
2023-02-04T07:06:06.154Z,103393.59
2023-02-04T07:08:51.548Z,103395.34
2023-02-04T07:11:36.556Z,103395.34
2023-02-04T07:14:21.674Z,103404.03
2023-02-04T07:17:06.541Z,103384.16
2023-02-04T07:19:52.667Z,103383.31
2023-02-04T07:22:38.252Z,103398.03
2023-02-04T07:25:23.450Z,103398.03
2023-02-04T07:28:08.672Z,103394.69
2023-02-04T07:30:53.624Z,103397.28
2023-02-04T07:33:38.689Z,103414.59
2023-02-04T07:36:24.000Z,103412.00
2023-02-04T07:39:10.159Z,103409.38
2023-02-04T07:41:55.197Z,103412.00
2023-02-04T07:44:40.292Z,103416.41
2023-02-04T07:47:25.381Z,103390.53
2023-02-04T07:50:10.708Z,103420.75
2023-02-04T07:52:55.725Z,103423.38
2023-02-04T07:55:40.931Z,103414.66
2023-02-04T07:58:25.946Z,103424.25
2023-02-04T08:01:11.066Z,103416.53
2023-02-04T08:03:56.120Z,103432.03
2023-02-04T08:06:41.158Z,103410.53
2023-02-04T08:09:27.142Z,103434.59
2023-02-04T08:12:12.432Z,103432.00
2023-02-04T08:14:57.626Z,103432.88
2023-02-04T08:17:43.120Z,103445.03
2023-02-04T08:20:28.172Z,103441.63
2023-02-04T08:23:13.346Z,103449.38
2023-02-04T08:25:59.785Z,103455.47
2023-02-04T08:28:45.074Z,103459.81
2023-02-04T08:31:30.809Z,103458.09
2023-02-04T08:34:15.977Z,103442.53
2023-02-04T08:37:00.712Z,103459.75
2023-02-04T08:39:47.332Z,103464.97
2023-02-04T08:42:32.523Z,103459.75
2023-02-04T08:45:17.686Z,103471.84
2023-02-04T08:48:02.646Z,103473.56
2023-02-04T08:50:47.569Z,103482.19
2023-02-04T08:53:32.619Z,103485.69
2023-02-04T08:56:20.328Z,103486.53
2023-02-04T08:59:05.613Z,103481.31
2023-02-04T09:01:52.743Z,103463.09
2023-02-04T09:04:37.682Z,103468.25
2023-02-04T09:07:22.778Z,103470.81
2023-02-04T09:10:08.266Z,103475.06
2023-02-04T09:12:56.073Z,103484.47
2023-02-04T09:15:41.301Z,103466.31
2023-02-04T09:18:26.507Z,103480.97
2023-02-04T09:21:11.766Z,103475.91
2023-02-04T09:23:57.980Z,103485.28
2023-02-04T09:26:43.365Z,103487.03
2023-02-04T09:29:28.618Z,103481.88
2023-02-04T09:32:13.935Z,103489.59
2023-02-04T09:34:58.836Z,103508.66
2023-02-04T09:37:43.646Z,103510.44
2023-02-04T09:40:32.585Z,103507.72
2023-02-04T09:43:22.953Z,103485.19
2023-02-04T09:46:16.151Z,103496.44
2023-02-04T09:49:03.554Z,103504.22
2023-02-04T09:51:50.030Z,103500.72
2023-02-04T09:54:35.237Z,103497.22
2023-02-04T09:57:21.109Z,103501.56
2023-02-04T10:00:18.593Z,103506.72
2023-02-04T10:03:03.865Z,103513.53
2023-02-04T10:05:49.770Z,103506.97
2023-02-04T10:08:34.983Z,103509.34
2023-02-04T10:11:22.171Z,103521.47
2023-02-04T10:14:13.371Z,103523.38
2023-02-04T10:17:01.320Z,103526.72
2023-02-04T10:19:46.793Z,103516.38
2023-02-04T10:22:32.188Z,103539.72
2023-02-04T10:25:20.893Z,103538.88
2023-02-04T10:28:05.880Z,103544.00
2023-02-04T10:30:51.279Z,103541.38
2023-02-04T10:33:38.570Z,103528.41
2023-02-04T10:36:23.494Z,103529.31
2023-02-04T10:39:20.183Z,103539.63
2023-02-04T10:42:05.294Z,103545.69
2023-02-04T10:44:51.578Z,103545.69
2023-02-04T10:47:37.024Z,103542.03
2023-02-04T10:50:24.934Z,103551.56
2023-02-04T10:53:31.663Z,103539.31
2023-02-04T10:56:21.629Z,103545.47
2023-02-04T10:59:19.257Z,103543.00
2023-02-04T11:02:24.161Z,103540.19
2023-02-04T11:05:18.678Z,103544.41
2023-02-04T11:08:20.405Z,103557.44
2023-02-04T11:11:24.983Z,103561.91
2023-02-04T11:14:28.271Z,103555.84
2023-02-04T11:17:20.882Z,103556.72
2023-02-04T11:20:17.216Z,103553.97
2023-02-04T11:23:14.784Z,103565.22
2023-02-04T11:26:13.366Z,103560.75
2023-02-04T11:28:58.701Z,103558.13
2023-02-04T11:31:57.764Z,103546.84
2023-02-04T11:34:49.311Z,103551.06
2023-02-04T11:37:39.975Z,103554.50
2023-02-04T11:40:29.998Z,103557.03
2023-02-04T11:43:16.259Z,103551.81
2023-02-04T11:46:10.540Z,103500.59
2023-02-04T11:48:57.741Z,103540.25
2023-02-04T11:51:44.766Z,103540.19
2023-02-04T11:54:29.680Z,103539.09
2023-02-04T11:57:15.676Z,103535.47
2023-02-04T12:00:00.887Z,103532.84
2023-02-04T12:02:49.160Z,103529.25
2023-02-04T12:05:45.232Z,103532.69
2023-02-04T12:08:36.391Z,103532.69
2023-02-04T12:11:27.488Z,103530.88
2023-02-04T12:14:17.964Z,103523.13
2023-02-04T12:17:18.132Z,103535.22
2023-02-04T12:20:03.686Z,103530.84
2023-02-04T12:22:48.728Z,103532.53
2023-02-04T12:25:33.965Z,103539.56
2023-02-04T12:28:19.997Z,103536.94
2023-02-04T12:31:05.578Z,103525.59
2023-02-04T12:33:51.058Z,103519.25
2023-02-04T12:36:36.187Z,103538.13
2023-02-04T12:39:21.183Z,103530.41
2023-02-04T12:42:06.327Z,103522.41
2023-02-04T12:44:51.760Z,103516.31
2023-02-04T12:47:37.614Z,103520.59
2023-02-04T12:50:22.866Z,103502.25
2023-02-04T12:53:08.097Z,103510.84
2023-02-04T12:55:53.332Z,103517.63
2023-02-04T12:58:38.686Z,103524.66
2023-02-04T13:01:23.610Z,103521.34
2023-02-04T13:04:08.562Z,103525.47
2023-02-04T13:06:53.687Z,103524.75
2023-02-04T13:09:38.627Z,103521.34
2023-02-04T13:12:23.580Z,103498.00
2023-02-04T13:15:09.339Z,103530.94
2023-02-04T13:17:54.412Z,103512.81
2023-02-04T13:20:39.571Z,103535.31
2023-02-04T13:23:24.761Z,103525.03
2023-02-04T13:26:10.494Z,103534.53
2023-02-04T13:28:55.370Z,103544.25
2023-02-04T13:31:40.773Z,103514.69
2023-02-04T13:34:25.891Z,103533.69
2023-02-04T13:37:11.170Z,103532.88
2023-02-04T13:39:56.226Z,103542.06
2023-02-04T13:42:41.554Z,103538.53
2023-02-04T13:45:27.036Z,103533.53
2023-02-04T13:48:12.371Z,103523.13
2023-02-04T13:50:57.362Z,103524.06
2023-02-04T13:53:42.326Z,103525.09
2023-02-04T13:56:28.194Z,103527.03
2023-02-04T13:59:13.200Z,103526.94
2023-02-04T14:01:58.290Z,103527.69
2023-02-04T14:04:43.913Z,103530.25
2023-02-04T14:07:30.407Z,103505.03
2023-02-04T14:10:18.181Z,103525.16
2023-02-04T14:13:03.061Z,103524.53
2023-02-04T14:15:47.923Z,103517.69
2023-02-04T14:18:32.890Z,103516.88
2023-02-04T14:21:17.850Z,103528.13
2023-02-04T14:24:03.373Z,103522.13
2023-02-04T14:26:48.621Z,103522.91
2023-02-04T14:29:34.583Z,103520.59
2023-02-04T14:32:20.923Z,103514.41
2023-02-04T14:35:06.228Z,103504.84
2023-02-04T14:37:51.907Z,103518.88
2023-02-04T14:40:37.028Z,103523.25
2023-02-04T14:43:22.218Z,103531.25
2023-02-04T14:46:07.385Z,103526.25
2023-02-04T14:48:52.528Z,103531.47
2023-02-04T14:51:37.511Z,103513.44
2023-02-04T14:54:22.293Z,103537.63
2023-02-04T14:57:11.222Z,103527.34
2023-02-04T14:59:56.434Z,103538.72
2023-02-04T15:02:42.614Z,103538.84
2023-02-04T15:05:27.710Z,103541.50
2023-02-04T15:08:12.556Z,103535.41
2023-02-04T15:10:57.410Z,103544.94
2023-02-04T15:13:42.408Z,103543.25
2023-02-04T15:16:27.362Z,103537.09
2023-02-04T15:19:12.765Z,103526.06
2023-02-04T15:21:57.877Z,103539.97
2023-02-04T15:24:43.150Z,103546.16
2023-02-04T15:27:28.257Z,103544.44
2023-02-04T15:30:14.000Z,103554.03
2023-02-04T15:32:59.303Z,103539.41
2023-02-04T15:35:44.215Z,103559.25
2023-02-04T15:38:29.279Z,103564.44
2023-02-04T15:41:14.370Z,103549.78
2023-02-04T15:43:59.455Z,103564.50
2023-02-04T15:46:44.392Z,103572.38
2023-02-04T15:49:29.498Z,103568.06
2023-02-04T15:52:24.206Z,103562.25
2023-02-04T15:55:10.567Z,103568.19
2023-02-04T15:57:56.008Z,103569.03
2023-02-04T16:00:41.750Z,103575.19
2023-02-04T16:03:27.214Z,103570.00
2023-02-04T16:06:12.701Z,103566.56
2023-02-04T16:08:57.749Z,103574.47
2023-02-04T16:11:42.611Z,103571.84
2023-02-04T16:14:27.452Z,103570.22
2023-02-04T16:17:12.347Z,103555.53
2023-02-04T16:19:58.050Z,103575.34
2023-02-04T16:22:43.424Z,103575.47
2023-02-04T16:25:28.473Z,103565.97
2023-02-04T16:28:13.617Z,103576.50
2023-02-04T16:30:58.706Z,103595.72
2023-02-04T16:33:43.769Z,103594.00
2023-02-04T16:36:28.689Z,103587.06
2023-02-04T16:39:13.618Z,103594.97
2023-02-04T16:41:59.130Z,103589.72
2023-02-04T16:44:44.247Z,103588.06
2023-02-04T16:47:29.269Z,103596.00
2023-02-04T16:50:14.174Z,103597.75
2023-02-04T16:52:59.507Z,103607.34
2023-02-04T16:55:45.696Z,103582.25
2023-02-04T16:58:30.754Z,103585.88
2023-02-04T17:01:17.287Z,103609.34
2023-02-04T17:04:02.658Z,103616.38
2023-02-04T17:06:47.992Z,103614.72
2023-02-04T17:09:33.139Z,103614.75
2023-02-04T17:12:18.164Z,103601.81
2023-02-04T17:15:03.567Z,103612.19
2023-02-04T17:17:48.513Z,103609.56
2023-02-04T17:20:33.650Z,103608.72
2023-02-04T17:23:18.827Z,103590.47
2023-02-04T17:26:03.940Z,103609.63
2023-02-04T17:28:50.716Z,103607.94
2023-02-04T17:31:36.294Z,103623.66
2023-02-04T17:34:21.406Z,103623.59
2023-02-04T17:37:06.638Z,103628.88
2023-02-04T17:39:51.853Z,103631.50
2023-02-04T17:42:36.762Z,103621.97
2023-02-04T17:45:22.005Z,103644.47
2023-02-04T17:48:07.111Z,103646.25
2023-02-04T17:50:53.294Z,103645.50
2023-02-04T17:53:40.400Z,103648.16
2023-02-04T17:56:25.972Z,103657.63
2023-02-04T17:59:11.268Z,103640.31
2023-02-04T18:01:56.648Z,103664.75
2023-02-04T18:04:42.011Z,103652.59
2023-02-04T18:07:27.429Z,103668.19
2023-02-04T18:10:37.244Z,103678.72
2023-02-04T18:13:29.134Z,103656.25
2023-02-04T18:16:30.419Z,103672.72
2023-02-04T18:19:20.057Z,103663.28
2023-02-04T18:22:09.021Z,103679.78
2023-02-04T18:24:53.970Z,103673.66
2023-02-04T18:27:38.810Z,103676.28
2023-02-04T18:30:27.716Z,103674.56
2023-02-04T18:33:24.884Z,103675.41
2023-02-04T18:36:11.895Z,103668.44
2023-02-04T18:38:57.131Z,103673.66
2023-02-04T18:41:44.991Z,103671.03
2023-02-04T18:44:37.915Z,103671.03
2023-02-04T18:47:31.029Z,103670.22
2023-02-04T18:50:22.081Z,103674.59
2023-02-04T18:53:13.708Z,103670.22
2023-02-04T18:56:02.111Z,103663.28
2023-02-04T18:58:49.170Z,103657.19
2023-02-04T19:01:38.906Z,103649.38
2023-02-04T19:04:26.071Z,103654.66
2023-02-04T19:07:14.468Z,103650.28
2023-02-04T19:09:59.964Z,103634.66
2023-02-04T19:12:44.952Z,103657.25
2023-02-04T19:15:37.712Z,103638.19
2023-02-04T19:18:29.577Z,103653.78
2023-02-04T19:21:22.510Z,103653.78
2023-02-04T19:24:17.713Z,103658.13
2023-02-04T19:27:36.794Z,103651.34
2023-02-04T19:30:28.094Z,103667.72
2023-02-04T19:33:38.046Z,103675.56
2023-02-04T19:36:36.967Z,103685.06
2023-02-04T19:39:28.373Z,103681.59
2023-02-04T19:42:34.710Z,103675.50
2023-02-04T19:45:22.996Z,103657.31
2023-02-04T19:48:37.599Z,103672.91
2023-02-04T19:51:28.709Z,103674.69
2023-02-04T19:54:20.004Z,103665.13
2023-02-04T19:57:21.851Z,103645.25
2023-02-04T20:00:25.797Z,103656.53
2023-02-04T20:03:19.903Z,103654.81
2023-02-04T20:06:25.793Z,103653.94
2023-02-04T20:09:15.604Z,103640.97
2023-02-04T20:12:06.485Z,103635.75
2023-02-04T20:14:56.553Z,103639.13
2023-02-04T20:17:47.517Z,103644.41
2023-02-04T20:20:33.362Z,103629.72
2023-02-04T20:23:24.332Z,103647.06
2023-02-04T20:26:10.176Z,103646.13
2023-02-04T20:28:56.119Z,103665.22
2023-02-04T20:31:41.119Z,103667.09
2023-02-04T20:34:27.241Z,103687.81
2023-02-04T20:37:25.714Z,103689.50
2023-02-04T20:40:33.404Z,103689.53
2023-02-04T20:43:21.256Z,103673.84
2023-02-04T20:46:07.790Z,103670.44
2023-02-04T20:48:53.059Z,103679.19
2023-02-04T20:51:38.154Z,103680.03
2023-02-04T20:54:23.199Z,103693.16
2023-02-04T20:57:17.644Z,103690.59
2023-02-04T21:00:31.967Z,103675.84
2023-02-04T21:03:33.477Z,103692.28
2023-02-04T21:06:35.142Z,103666.25
2023-02-04T21:09:29.096Z,103675.03
2023-02-04T21:12:14.685Z,103675.84
2023-02-04T21:15:00.010Z,103663.72
2023-02-04T21:17:45.313Z,103674.97
2023-02-04T21:20:33.464Z,103671.53
2023-02-04T21:23:19.577Z,103671.56
2023-02-04T21:26:05.620Z,103684.56
2023-02-04T21:28:50.588Z,103666.34
2023-02-04T21:31:35.953Z,103681.06
2023-02-04T21:34:20.878Z,103664.59
2023-02-04T21:37:06.092Z,103686.34
2023-02-04T21:39:51.164Z,103692.41
2023-02-04T21:42:36.133Z,103693.19
2023-02-04T21:45:23.128Z,103692.28
2023-02-04T21:48:08.098Z,103680.94
2023-02-04T21:50:53.872Z,103686.25
2023-02-04T21:53:39.125Z,103675.81
2023-02-04T21:56:24.134Z,103693.19
2023-02-04T21:59:09.472Z,103666.22
2023-02-04T22:01:54.738Z,103655.03
2023-02-04T22:04:39.863Z,103684.53
2023-02-04T22:07:24.831Z,103671.38
2023-02-04T22:10:16.349Z,103662.72
2023-02-04T22:13:01.548Z,103654.94
2023-02-04T22:15:47.933Z,103649.72
2023-02-04T22:18:33.125Z,103659.25
2023-02-04T22:21:18.139Z,103649.72
2023-02-04T22:24:03.359Z,103658.41
2023-02-04T22:26:51.596Z,103659.34
2023-02-04T22:29:36.554Z,103658.59
2023-02-04T22:32:23.060Z,103662.06
2023-02-04T22:35:12.701Z,103670.81
2023-02-04T22:37:59.998Z,103678.66
2023-02-04T22:40:48.405Z,103663.81
2023-02-04T22:43:33.347Z,103662.00
2023-02-04T22:46:18.524Z,103654.25
2023-02-04T22:49:03.538Z,103671.56
2023-02-04T22:51:48.908Z,103668.13
2023-02-04T22:54:34.310Z,103664.56
2023-02-04T22:57:19.607Z,103650.75
2023-02-04T23:00:08.969Z,103677.66
2023-02-04T23:02:53.944Z,103668.91
2023-02-04T23:05:39.430Z,103657.69
2023-02-04T23:08:24.494Z,103672.38
2023-02-04T23:11:09.723Z,103667.19
2023-02-04T23:13:55.757Z,103665.53
2023-02-04T23:16:40.769Z,103668.13
2023-02-04T23:19:25.625Z,103661.28
2023-02-04T23:22:11.941Z,103676.66
2023-02-04T23:24:58.035Z,103669.75
2023-02-04T23:27:42.894Z,103669.75
2023-02-04T23:30:28.211Z,103666.34
2023-02-04T23:33:13.300Z,103667.19
2023-02-04T23:35:58.264Z,103667.19
2023-02-04T23:38:43.598Z,103665.41
2023-02-04T23:41:28.964Z,103635.94
2023-02-04T23:44:14.315Z,103651.53
2023-02-04T23:46:59.487Z,103648.91
2023-02-04T23:49:44.465Z,103663.69
2023-02-04T23:52:29.535Z,103665.41
2023-02-04T23:55:15.176Z,103666.28
2023-02-04T23:58:01.112Z,103655.84
